Tiempo atmosférico en la estación meteorológica de Alconchel, Badajoz (170 m.)



Fecha
DESCASC
Temp. máxima en grados centígrados (hora)
DESCASC
Temp. mínima en grados centígrados (hora)
DESCASC
Temp. media en grados centígrados
DESCASC
Racha de viento máxima en m/sg (hora)
DESCASC
Velocidad máxima media en intervalos de 10 minutos(hora)
DESCASC
Precipitaciones diarias en mm
DESCASC
Precipitaciones de 00:00 a 06:00 en mm
DESCASC
Precipitaciones de 06:00 a 12:00 en mm
DESCASC
Precipitaciones de 12:00 a 18:00 en mm
DESCASC
Precipitaciones de 18:00 a 24:00 en mm
DESCASC
18-08-2019 33.1 (16:40) 16.2 (07:40) 24.6 10.28 (21:20) 6.94 (21:20) 0 0 0 0 0
17-08-2019 36.4 (18:50) 15.6 (07:20) 26 8.89 (22:40) 5.83 (21:40) 0 0 0 0 0
16-08-2019 38 (18:30) 18.1 (07:50) 28.1 8.61 (21:00) 5.83 (21:00) 0 0 0 0 0
15-08-2019 38.1 (19:20) 18 (00:00) 28 10.28 (21:30) 6.39 (21:40) 0 0 0 0 0
14-08-2019 36.5 (17:20) 14.7 (00:00) 25.6 8.89 (22:00) 5.83 (22:00) 0 0 0 0 0
13-08-2019 34.2 (17:40) 13.6 (00:00) 23.9 10.83 (00:30) 6.67 (22:40) 0 0 0 0 0
12-08-2019 29.9 (17:30) 12.5 (00:00) 21.2 11.11 (16:10) 6.67 (16:20) 0 0 0 0 0
11-08-2019 27.5 (19:10) 15.1 (00:00) 21.3 12.78 (22:30) 7.22 (11:50) 0 0 0 0 0
10-08-2019 30.9 (18:30) 15.7 (00:00) 23.3 11.11 (22:00) 7.22 (22:10) 0 0 0 0 0
09-08-2019 27.5 (19:10) 22 (00:00) 24.8 9.17 (15:10) 6.11 (15:10) 0 0 0 0 0
08-08-2019 33.3 (17:00) 18.3 (00:00) 25.8 10.83 (20:30) 8.06 (20:30) 0 0 0 0 0
07-08-2019 28.9 (19:40) 18.9 (00:00) 23.9 6.67 (23:40) 4.44 (23:40) 0 0 0 0 0
06-08-2019 34.2 (17:20) 16.2 (00:00) 25.2 9.17 (18:10) 6.11 (21:10) 0 0 0 0 0
05-08-2019 35.1 (18:00) 14 (00:00) 24.5 8.33 (00:10) 5.28 (22:20) 0 0 0 0 0
04-08-2019 34.6 (17:40) 16.6 (00:00) 25.6 9.17 (17:50) 6.11 (20:20) 0 0 0 0 0
03-08-2019 35 (19:10) 15 (00:00) 25 10 (22:00) 6.94 (22:00) 0 0 0 0 0
02-08-2019 34.3 (18:30) 14.2 (00:00) 24.2 8.89 (23:00) 5.56 (22:10) 0 0 0 0 0
01-08-2019 34.4 (17:00) 15.3 (00:00) 24.9 9.72 (22:10) 6.39 (21:00) 0 0 0 0 0
31-07-2019 35.5 (17:40) 13.9 (00:00) 24.7 11.67 (20:20) 7.5 (20:20) 0 0 0 0 0
30-07-2019 32.1 (19:40) 13.1 (00:00) 22.6 9.44 (01:30) 6.11 (01:40) 0 0 0 0 0
29-07-2019 30.3 (17:20) 15.5 (00:00) 22.9 11.67 (21:20) 7.5 (21:20) 0 0 0 0 0
28-07-2019 31.8 (19:40) 15.8 (00:00) 23.8 10 (21:50) 6.94 (21:50) 0 0 0 0 0
27-07-2019 26.4 (18:30) 16.6 (00:00) 21.5 11.39 (15:10) 7.5 (15:10) 2.6 0 0 2.6 0
26-07-2019 29 (17:20) 15.2 (00:00) 22.1 11.94 (18:40) 7.5 (19:30) 0 0 0 0 0
25-07-2019 33.7 (17:50) 18.2 (00:00) 26 13.89 (21:10) 9.44 (21:20) 0 0 0 0 0
24-07-2019 36.9 (18:10) 18.8 (00:00) 27.9 10.56 (21:20) 6.67 (21:20) 0 0 0 0 0
23-07-2019 36.5 (19:00) 21.3 (00:00) 28.9 10.28 (21:00) 6.94 (20:50) 0 0 0 0 0
22-07-2019 38.1 (17:20) 20.3 (00:00) 29.2 10.28 (21:20) 6.94 (21:40) 0 0 0 0 0
21-07-2019 38 (18:30) 15 (00:00) 26.5 7.5 (22:10) 5 (22:30) 0 0 0 0 0

Gráficas

Temp. máximas Temp. mínimas Temp. medias Precipitaciones Rachas de viento máximas Velocidades máximas media en intervalos de 10 minutos

Datos horarios

Fecha y hora oficial Temperatura (ºC) Velocidad del viento (km/h) Dirección del viento Racha (km/h) Dirección de racha Precipitación (mm) Presión (hPa) Tendencia (hPa) Humedad (%)
2019-08-19 23:00:00 -- -- -- -- -- -- -- -- --
2019-08-19 22:00:00 23.5 21 Norte 40 Noroeste 0 -- -- 41
2019-08-19 21:00:00 26.3 24 Norte 46 Noroeste 0 -- -- 37
2019-08-19 20:00:00 31 17 Noroeste 30 Noroeste 0 -- -- 21
2019-08-19 19:00:00 31.8 15 Noroeste 24 Noroeste 0 -- -- 16
2019-08-19 18:00:00 32.2 15 Oeste 30 Oeste 0 -- -- 17
2019-08-19 17:00:00 31.9 13 Oeste 24 Oeste 0 -- -- 17
2019-08-19 16:00:00 31.1 12 Noroeste 26 Noroeste 0 -- -- 20
2019-08-19 15:00:00 29.5 13 Oeste 21 Noroeste 0 -- -- 23
2019-08-19 14:00:00 26.9 9 Oeste 17 Sur 0 -- -- 39
2019-08-19 13:00:00 24.9 9 Sudoeste 15 Sudoeste 0 -- -- 46
2019-08-19 12:00:00 22.7 10 Oeste 18 Noroeste 0 -- -- 51
2019-08-19 11:00:00 20 8 Oeste 13 Oeste 0 -- -- 61
2019-08-19 10:00:00 18.3 3 Noroeste 8 Nordeste 0 -- -- 69
2019-08-19 09:00:00 17 4 Este 6 Nordeste 0 -- -- 72
2019-08-19 08:00:00 14.5 4 Nordeste 7 Norte 0 -- -- 82
2019-08-19 07:00:00 15.1 2 Norte 12 Noroeste 0 -- -- 78
2019-08-19 06:00:00 16 9 Norte 14 Norte 0 -- -- 75
2019-08-19 05:00:00 16.9 8 Norte 11 Norte 0 -- -- 75
2019-08-19 04:00:00 18.3 7 Norte 19 Norte 0 -- -- 72
2019-08-19 03:00:00 20 9 Norte 16 Norte 0 -- -- 68
2019-08-19 02:00:00 21.1 6 Norte 18 Norte 0 -- -- 71
2019-08-19 01:00:00 22.6 9 Norte 21 Norte 0 -- -- 72
2019-08-19 00:00:00 24.3 14 Noroeste 28 Noroeste 0 -- -- 67
2019-08-18 23:00:00 25.5 21 Norte 32 Noroeste 0 -- -- 64
2019-08-18 22:00:00 27.1 21 Noroeste 37 Noroeste 0 -- -- 59
2019-08-18 21:00:00 29.9 24 Noroeste 36 Noroeste 0 -- -- 48
2019-08-18 20:00:00 32 18 Noroeste 31 Oeste 0 -- -- 39
2019-08-18 19:00:00 32.6 19 Noroeste 31 Oeste 0 -- -- 34
2019-08-18 18:00:00 32.5 21 Noroeste 33 Noroeste 0 -- -- 36
2019-08-18 17:00:00 32.7 19 Noroeste 31 Noroeste 0 -- -- 32
2019-08-18 16:00:00 32.7 15 Noroeste 31 Noroeste 0 -- -- 33
2019-08-18 15:00:00 31.4 14 Noroeste 27 Oeste 0 -- -- 39
2019-08-18 14:00:00 30.2 11 Oeste 18 Oeste 0 -- -- 42
2019-08-18 13:00:00 28.2 9 Oeste 15 Oeste 0 -- -- 47
2019-08-18 12:00:00 25.1 7 Oeste 14 Oeste 0 -- -- 58
2019-08-18 11:00:00 22.3 7 Oeste 12 Oeste 0 -- -- 70
2019-08-18 10:00:00 20.8 2 Sudoeste 9 Noroeste 0 -- -- 76
2019-08-18 09:00:00 18.1 0 Calma 7 Norte 0 -- -- 87
2019-08-18 08:00:00 16.2 2 Norte 11 Norte 0 -- -- 93
2019-08-18 07:00:00 16.6 6 Norte 10 Norte 0 -- -- 91
2019-08-18 06:00:00 17.3 0 Calma 10 Noroeste 0 -- -- 87
2019-08-18 05:00:00 18 5 Norte 6 Norte 0 -- -- 83
2019-08-18 04:00:00 18.7 3 Norte 7 Norte 0 -- -- 80
2019-08-18 03:00:00 20.2 5 Norte 16 Norte 0 -- -- 72
2019-08-18 02:00:00 21.8 10 Norte 20 Norte 0 -- -- 64
2019-08-18 01:00:00 23.7 5 Norte 12 Norte 0 -- -- 56
2019-08-18 00:00:00 25.9 8 Noroeste 29 Noroeste 0 -- -- 50
2019-08-17 23:00:00 28 21 Noroeste 32 Noroeste 0 -- -- 49
2019-08-17 22:00:00 30.6 19 Oeste 32 Oeste 0 -- -- 43
2019-08-17 21:00:00 33.8 19 Oeste 29 Oeste 0 -- -- 33
2019-08-17 20:00:00 36.1 11 Oeste 23 Sudoeste 0 -- -- 20
2019-08-17 19:00:00 36.2 15 Sudoeste 21 Sudoeste 0 -- -- 20
2019-08-17 18:00:00 36 14 Sudoeste 19 Sudoeste 0 -- -- 23
2019-08-17 17:00:00 34.9 13 Sudoeste 20 Sudoeste 0 -- -- 26
2019-08-17 16:00:00 34.3 17 Sudoeste 23 Sudoeste 0 -- -- 23
2019-08-17 15:00:00 32.1 10 Sudoeste 15 Sudoeste 0 -- -- 31
2019-08-17 14:00:00 29.3 6 Sudoeste 12 Oeste 0 -- -- 38
2019-08-17 13:00:00 26 8 Oeste 13 Oeste 0 -- -- 52
2019-08-17 12:00:00 23.9 8 Sudoeste 13 Sudoeste 0 -- -- 56
2019-08-17 11:00:00 21.1 8 Oeste 12 Noroeste 0 -- -- 70
2019-08-17 10:00:00 19.2 4 Nordeste 10 Norte 0 -- -- 77
2019-08-17 09:00:00 16.9 5 Norte 8 Norte 0 -- -- 87
2019-08-17 08:00:00 15.6 0 Calma 6 Norte 0 -- -- 91
2019-08-17 07:00:00 15.8 6 Norte 8 Norte 0 -- -- 87
2019-08-17 06:00:00 16.8 4 Norte 12 Norte 0 -- -- 80
2019-08-17 05:00:00 17.5 6 Norte 9 Norte 0 -- -- 77
2019-08-17 04:00:00 19 6 Norte 11 Norte 0 -- -- 70
2019-08-17 03:00:00 20.4 5 Norte 15 Noroeste 0 -- -- 60
2019-08-17 02:00:00 22.3 8 Noroeste 13 Noroeste 0 -- -- 55
2019-08-17 01:00:00 24 5 Noroeste 16 Noroeste 0 -- -- 49
2019-08-17 00:00:00 26 9 Noroeste 24 Norte 0 -- -- 41
2019-08-16 23:00:00 28 17 Norte 29 Noroeste 0 -- -- 36
2019-08-16 22:00:00 30.2 18 Noroeste 30 Noroeste 0 -- -- 29
2019-08-16 21:00:00 33.7 21 Noroeste 31 Noroeste 0 -- -- 27
2019-08-16 20:00:00 36.3 18 Noroeste 26 Noroeste 0 -- -- 23
2019-08-16 19:00:00 37.5 14 Noroeste 26 Noroeste 0 -- -- 20
2019-08-16 18:00:00 37.4 15 Noroeste 23 Noroeste 0 -- -- 22
2019-08-16 17:00:00 37.3 9 Oeste 18 Oeste 0 -- -- 24
2019-08-16 16:00:00 35.3 12 Sudoeste 18 Oeste 0 -- -- 32
2019-08-16 15:00:00 33.8 10 Sudoeste 17 Sudoeste 0 -- -- 36
2019-08-16 14:00:00 32 9 Oeste 15 Oeste 0 -- -- 40
2019-08-16 13:00:00 29.4 7 Oeste 13 Sudoeste 0 -- -- 46
2019-08-16 12:00:00 26.1 7 Sudoeste 12 Oeste 0 -- -- 53
2019-08-16 11:00:00 23.9 6 Oeste 10 Sudoeste 0 -- -- 59
2019-08-16 10:00:00 21.7 4 Oeste 8 Oeste 0 -- -- 67
2019-08-16 09:00:00 19.5 4 Norte 9 Norte 0 -- -- 74
2019-08-16 08:00:00 18.1 4 Norte 12 Norte 0 -- -- 78
2019-08-16 07:00:00 18.6 8 Norte 12 Norte 0 -- -- 76
2019-08-16 06:00:00 19.1 5 Norte 8 Norte 0 -- -- 75
2019-08-16 05:00:00 20.2 2 Norte 12 Norte 0 -- -- 71
2019-08-16 04:00:00 21.1 6 Norte 11 Norte 0 -- -- 67
2019-08-16 03:00:00 22.2 7 Norte 14 Norte 0 -- -- 64
2019-08-16 02:00:00 23.4 4 Norte 8 Norte 0 -- -- 60
2019-08-16 01:00:00 25.1 4 Norte 12 Norte 0 -- -- 53
2019-08-16 00:00:00 27.2 5 Norte 19 Norte 0 -- -- 44
2019-08-15 23:00:00 29.1 13 Norte 33 Norte 0 -- -- 38
2019-08-15 22:00:00 31.9 20 Norte 37 Norte 0 -- -- 32
2019-08-15 21:00:00 35.6 18 Noroeste 28 Noroeste 0 -- -- 24
2019-08-15 20:00:00 37.4 11 Norte 22 Noroeste 0 -- -- 20
2019-08-15 19:00:00 37.8 13 Noroeste 23 Norte 0 -- -- 22
2019-08-15 18:00:00 37.7 5 Este 25 Noroeste 0 -- -- 24
2019-08-15 17:00:00 37.5 10 Oeste 23 Oeste 0 -- -- 25
2019-08-15 16:00:00 37.2 9 Noroeste 19 Oeste 0 -- -- 25
2019-08-15 15:00:00 35.8 12 Noroeste 20 Norte 0 -- -- 25
2019-08-15 14:00:00 34.2 8 Norte 21 Norte 0 -- -- 35
2019-08-15 13:00:00 32 8 Norte 17 Norte 0 -- -- 42
2019-08-15 12:00:00 28.4 8 Norte 15 Norte 0 -- -- 53
2019-08-15 11:00:00 25.3 6 Norte 14 Norte 0 -- -- 62
2019-08-15 10:00:00 22.3 4 Norte 9 Noroeste 0 -- -- 73
2019-08-15 09:00:00 19.5 5 Norte 6 Norte 0 -- -- 84
2019-08-15 08:00:00 18.1 4 Norte 6 Norte 0 -- -- 90
2019-08-15 07:00:00 18.7 0 Calma 8 Norte 0 -- -- 86
2019-08-15 06:00:00 19.2 6 Norte 13 Norte 0 -- -- 84
2019-08-15 05:00:00 19.7 5 Norte 11 Norte 0 -- -- 81
2019-08-15 04:00:00 20.6 8 Norte 13 Norte 0 -- -- 76
2019-08-15 03:00:00 21.6 6 Norte 18 Norte 0 -- -- 72
2019-08-15 02:00:00 23.2 12 Norte 27 Norte 0 -- -- 66
2019-08-15 01:00:00 24.5 12 Norte 19 Norte 0 -- -- 61
2019-08-15 00:00:00 26.6 11 Norte 22 Norte 0 -- -- 51
2019-08-14 23:00:00 28.1 14 Norte 24 Norte 0 -- -- 41
2019-08-14 22:00:00 30.9 21 Norte 32 Norte 0 -- -- 32
2019-08-14 21:00:00 34.1 13 Noroeste 28 Norte 0 -- -- 22
2019-08-14 20:00:00 35.6 17 Norte 26 Norte 0 -- -- 18
2019-08-14 19:00:00 36.5 10 Oeste 18 Noroeste 0 -- -- 17
2019-08-14 18:00:00 36.5 12 Sudoeste 21 Sudoeste 0 -- -- 17
2019-08-14 17:00:00 36.4 15 Oeste 21 Oeste 0 -- -- 17
2019-08-14 16:00:00 35.8 9 Noroeste 20 Oeste 0 -- -- 16
2019-08-14 15:00:00 35 11 Noroeste 26 Noroeste 0 -- -- 16
2019-08-14 14:00:00 32.9 12 Oeste 18 Oeste 0 -- -- 20
2019-08-14 13:00:00 30.3 13 Sudoeste 19 Sudoeste 0 -- -- 29
2019-08-14 12:00:00 27.3 6 Norte 19 Norte 0 -- -- 34
2019-08-14 11:00:00 24.1 8 Nordeste 13 Norte 0 -- -- 42
2019-08-14 10:00:00 20.6 5 Nordeste 9 Norte 0 -- -- 53
2019-08-14 09:00:00 17.4 0 Calma 6 Este 0 -- -- 64
2019-08-14 08:00:00 14.7 5 Este 8 Sudeste 0 -- -- 71
2019-08-14 07:00:00 15.7 3 Nordeste 4 Nordeste 0 -- -- 68
2019-08-14 06:00:00 16.4 0 Calma 6 Norte 0 -- -- 66
2019-08-14 05:00:00 17.2 5 Norte 6 Norte 0 -- -- 63
2019-08-14 04:00:00 18.1 2 Nordeste 11 Norte 0 -- -- 59
2019-08-14 03:00:00 19.4 6 Norte 14 Norte 0 -- -- 55
2019-08-14 02:00:00 21.1 8 Norte 16 Norte 0 -- -- 50
2019-08-14 01:00:00 23 10 Norte 27 Norte 0 -- -- 45
2019-08-14 00:00:00 24.6 19 Norte 33 Norte 0 -- -- 42
2019-08-13 23:00:00 26.5 23 Norte 38 Nordeste 0 -- -- 39
2019-08-13 22:00:00 29.1 18 Norte 29 Noroeste 0 -- -- 29
2019-08-13 21:00:00 32.9 7 Norte 13 Norte 0 -- -- 16
2019-08-13 20:00:00 33.8 9 Noroeste 22 Nordeste 0 -- -- 16
2019-08-13 19:00:00 34.2 8 Este 26 Norte 0 -- -- 16
2019-08-13 18:00:00 33.8 6 Noroeste 20 Nordeste 0 -- -- 16
2019-08-13 17:00:00 33.6 8 Norte 24 Norte 0 -- -- 14
2019-08-13 16:00:00 32.7 10 Nordeste 23 Nordeste 0 -- -- 14
2019-08-13 15:00:00 31.8 8 Noroeste 20 Norte 0 -- -- 15
2019-08-13 14:00:00 30.4 12 Norte 21 Noroeste 0 -- -- 22
2019-08-13 13:00:00 28.5 12 Nordeste 24 Nordeste 0 -- -- 26
2019-08-13 12:00:00 26 9 Norte 20 Norte 0 -- -- 31
2019-08-13 11:00:00 22.9 11 Nordeste 17 Nordeste 0 -- -- 41
2019-08-13 10:00:00 19.1 9 Norte 13 Norte 0 -- -- 58
2019-08-13 09:00:00 16.3 0 Calma 5 Nordeste 0 -- -- 73
2019-08-13 08:00:00 14 3 Nordeste 6 Nordeste 0 -- -- 83
2019-08-13 07:00:00 13.6 5 Nordeste 8 Norte 0 -- -- 82
2019-08-13 06:00:00 14.1 7 Norte 8 Norte 0 -- -- 80
2019-08-13 05:00:00 15 4 Norte 9 Norte 0 -- -- 75
2019-08-13 04:00:00 16.1 4 Norte 9 Norte 0 -- -- 70
2019-08-13 03:00:00 17.7 4 Norte 21 Norte 0 -- -- 65
2019-08-13 02:00:00 19.2 11 Norte 30 Norte 0 -- -- 60
2019-08-13 01:00:00 20.3 20 Norte 39 Norte 0 -- -- 56
2019-08-13 00:00:00 22.8 20 Norte 31 Norte 0 -- -- 47
2019-08-12 23:00:00 24.2 17 Norte 28 Noroeste 0 -- -- 26
2019-08-12 22:00:00 25.5 9 Nordeste 14 Nordeste 0 -- -- 20
2019-08-12 21:00:00 29.4 8 Nordeste 27 Norte 0 -- -- 16
2019-08-12 20:00:00 29.8 12 Norte 27 Nordeste 0 -- -- 16
2019-08-12 19:00:00 29.1 16 Nordeste 32 Nordeste 0 -- -- 17
2019-08-12 18:00:00 29.8 19 Nordeste 34 Nordeste 0 -- -- 16
2019-08-12 17:00:00 29.5 15 Norte 40 Nordeste 0 -- -- 17
2019-08-12 16:00:00 28.6 21 Nordeste 39 Nordeste 0 -- -- 20
2019-08-12 15:00:00 27.8 17 Norte 36 Nordeste 0 -- -- 23
2019-08-12 14:00:00 26.5 21 Nordeste 35 Norte 0 -- -- 26
2019-08-12 13:00:00 24.7 19 Norte 35 Nordeste 0 -- -- 33
2019-08-12 12:00:00 22.5 19 Norte 35 Norte 0 -- -- 42
2019-08-12 11:00:00 20.9 17 Norte 34 Nordeste 0 -- -- 47
2019-08-12 10:00:00 17.6 9 Norte 17 Norte 0 -- -- 61
2019-08-12 09:00:00 15.1 0 Calma 4 Nordeste 0 -- -- 75
2019-08-12 08:00:00 12.6 4 Norte 6 Nordeste 0 -- -- 84
2019-08-12 07:00:00 12.7 4 Nordeste 7 Norte 0 -- -- 83
2019-08-12 06:00:00 13.5 3 Norte 11 Norte 0 -- -- 79
2019-08-12 05:00:00 14.7 7 Norte 17 Norte 0 -- -- 75
2019-08-12 04:00:00 15.6 10 Norte 17 Norte 0 -- -- 71
2019-08-12 03:00:00 16.5 10 Norte 21 Norte 0 -- -- 69
2019-08-12 02:00:00 17.4 16 Norte 30 Norte 0 -- -- 66
2019-08-12 01:00:00 18.5 19 Norte 35 Noroeste 0 -- -- 61
2019-08-12 00:00:00 19.8 22 Norte 42 Norte 0 -- -- 54
2019-08-11 23:00:00 21.6 25 Norte 46 Norte 0 -- -- 44
2019-08-11 22:00:00 23.1 25 Norte 40 Norte 0 -- -- 38
2019-08-11 21:00:00 25.3 23 Noroeste 39 Noroeste 0 -- -- 35
2019-08-11 20:00:00 26.2 23 Norte 36 Norte 0 -- -- 32
2019-08-11 19:00:00 27.3 22 Norte 39 Noroeste 0 -- -- 30
2019-08-11 18:00:00 27 19 Norte 37 Noroeste 0 -- -- 30
2019-08-11 17:00:00 26.7 20 Norte 39 Norte 0 -- -- 29
2019-08-11 16:00:00 25.8 20 Norte 38 Norte 0 -- -- 32
2019-08-11 15:00:00 25.9 18 Norte 37 Norte 0 -- -- 34
2019-08-11 14:00:00 25 24 Norte 44 Noroeste 0 -- -- 34
2019-08-11 13:00:00 23.5 26 Noroeste 37 Norte 0 -- -- 38
2019-08-11 12:00:00 22.5 24 Norte 40 Noroeste 0 -- -- 40
2019-08-11 11:00:00 20.9 22 Norte 33 Norte 0 -- -- 49
2019-08-11 10:00:00 18.7 19 Norte 30 Norte 0 -- -- 61
2019-08-11 09:00:00 16.8 12 Noroeste 18 Norte 0 -- -- 69
2019-08-11 08:00:00 15.1 7 Noroeste 14 Noroeste 0 -- -- 77
2019-08-11 07:00:00 15.9 5 Noroeste 17 Noroeste 0 -- -- 75
2019-08-11 06:00:00 16.4 8 Norte 17 Norte 0 -- -- 73
2019-08-11 05:00:00 17.4 12 Norte 27 Noroeste 0 -- -- 65
2019-08-11 04:00:00 18.7 15 Noroeste 28 Noroeste 0 -- -- 61
2019-08-11 03:00:00 19.3 10 Noroeste 23 Norte 0 -- -- 57
2019-08-11 02:00:00 19.7 10 Norte 26 Noroeste 0 -- -- 53
2019-08-11 01:00:00 20.4 13 Noroeste 29 Norte 0 -- -- 56
2019-08-11 00:00:00 21.4 18 Norte 32 Norte 0 -- -- 53
2019-08-10 23:00:00 22.9 22 Noroeste 40 Noroeste 0 -- -- 52
2019-08-10 22:00:00 24.9 24 Noroeste 40 Noroeste 0 -- -- 46
2019-08-10 21:00:00 26.8 19 Noroeste 34 Noroeste 0 -- -- 39
2019-08-10 20:00:00 28.3 20 Noroeste 35 Noroeste 0 -- -- 34
2019-08-10 19:00:00 30 18 Norte 33 Oeste 0 -- -- 30
2019-08-10 18:00:00 30.6 13 Noroeste 22 Noroeste 0 -- -- 24
2019-08-10 17:00:00 30.6 10 Oeste 21 Norte 0 -- -- 25
2019-08-10 16:00:00 30 13 Noroeste 24 Noroeste 0 -- -- 28
2019-08-10 15:00:00 29.2 9 Noroeste 22 Nordeste 0 -- -- 28
2019-08-10 14:00:00 27.7 10 Noroeste 24 Norte 0 -- -- 33
2019-08-10 13:00:00 26.1 9 Noroeste 23 Noroeste 0 -- -- 41
2019-08-10 12:00:00 23.9 12 Norte 23 Norte 0 -- -- 46
2019-08-10 11:00:00 21.2 10 Norte 19 Norte 0 -- -- 62
2019-08-10 10:00:00 19.2 5 Norte 13 Norte 0 -- -- 73
2019-08-10 09:00:00 17.4 7 Norte 10 Norte 0 -- -- 84
2019-08-10 08:00:00 15.7 4 Norte 6 Norte 0 -- -- 90
2019-08-10 07:00:00 16.4 2 Nordeste 5 Este 0 -- -- 87
2019-08-10 06:00:00 16.6 6 Este 9 Norte 0 -- -- 86
2019-08-10 05:00:00 18.1 7 Norte 25 Norte 0 -- -- 81
2019-08-10 04:00:00 18.8 13 Norte 23 Norte 0 -- -- 77
2019-08-10 03:00:00 19.5 17 Norte 27 Norte 0 -- -- 73
2019-08-10 02:00:00 20.5 17 Norte 28 Norte 0 -- -- 69
2019-08-10 01:00:00 21.5 13 Norte 21 Norte 0 -- -- 64
2019-08-10 00:00:00 22.4 7 Norte 15 Norte 0 -- -- 61
2019-08-09 23:00:00 23.3 10 Norte 15 Norte 0 -- -- 58
2019-08-09 22:00:00 24.2 9 Norte 22 Norte 0 -- -- 55
2019-08-09 21:00:00 25.8 15 Noroeste 24 Oeste 0 -- -- 58
2019-08-09 20:00:00 26.8 14 Noroeste 24 Noroeste 0 -- -- 58
2019-08-09 19:00:00 26.7 12 Oeste 25 Noroeste 0 -- -- 60
2019-08-09 18:00:00 26.6 13 Noroeste 26 Noroeste 0 -- -- 60
2019-08-09 17:00:00 26.5 14 Noroeste 24 Noroeste 0 -- -- 60
2019-08-09 16:00:00 26.1 17 Noroeste 33 Noroeste 0 -- -- 63
2019-08-09 15:00:00 25.7 18 Noroeste 31 Noroeste 0 -- -- 72
2019-08-09 14:00:00 25.3 17 Oeste 30 Sudoeste 0 -- -- 78
2019-08-09 13:00:00 24.4 12 Oeste 23 Sudoeste 0 -- -- 86
2019-08-09 12:00:00 25.2 17 Sudoeste 28 Sudoeste 0 -- -- 74
2019-08-09 11:00:00 23.7 17 Sudoeste 25 Sudoeste 0 -- -- 80
2019-08-09 10:00:00 22.5 19 Sudoeste 25 Sudoeste 0 -- -- 87
2019-08-09 09:00:00 22.6 14 Sudoeste 22 Sudoeste 0 -- -- 84
2019-08-09 08:00:00 22.3 16 Sudoeste 23 Sudoeste 0 -- -- 84
2019-08-09 07:00:00 22.5 14 Oeste 19 Oeste 0 -- -- 84
2019-08-09 06:00:00 22.4 12 Sudoeste 20 Sudoeste 0 -- -- 83
2019-08-09 05:00:00 22.5 12 Sudoeste 16 Sudoeste 0 -- -- 82
2019-08-09 04:00:00 22.1 7 Sudoeste 27 Oeste 0 -- -- 82
2019-08-09 03:00:00 22.4 13 Oeste 24 Oeste 0 -- -- 82
2019-08-09 02:00:00 22.5 13 Oeste 24 Oeste 0 -- -- 82
2019-08-09 01:00:00 22.8 11 Oeste 22 Noroeste 0 -- -- 79
2019-08-09 00:00:00 23.6 10 Noroeste 26 Oeste 0 -- -- 72
2019-08-08 23:00:00 25.2 15 Noroeste 25 Noroeste 0 -- -- 66
2019-08-08 22:00:00 26.5 18 Noroeste 38 Oeste 0 -- -- 61
2019-08-08 21:00:00 29.1 24 Noroeste 39 Oeste 0 -- -- 56
2019-08-08 20:00:00 31.9 21 Oeste 31 Oeste 0 -- -- 43
2019-08-08 19:00:00 32.5 18 Oeste 33 Oeste 0 -- -- 41
2019-08-08 18:00:00 32.8 21 Oeste 33 Sudoeste 0 -- -- 39
2019-08-08 17:00:00 33.3 20 Sudoeste 31 Sudoeste 0 -- -- 32
2019-08-08 16:00:00 31.4 17 Sudoeste 24 Sudoeste 0 -- -- 44
2019-08-08 15:00:00 29.5 16 Sudoeste 22 Sudoeste 0 -- -- 52
2019-08-08 14:00:00 28 14 Oeste 21 Sudoeste 0 -- -- 55
2019-08-08 13:00:00 26.3 12 Oeste 16 Oeste 0 -- -- 64
2019-08-08 12:00:00 24.9 11 Oeste 17 Oeste 0 -- -- 69
2019-08-08 11:00:00 23.4 8 Sudoeste 14 Oeste 0 -- -- 74
2019-08-08 10:00:00 22.1 5 Sur 9 Sudoeste 0 -- -- 77
2019-08-08 09:00:00 19.9 5 Oeste 9 Oeste 0 -- -- 88
2019-08-08 08:00:00 18.4 3 Sur 8 Sudeste 0 -- -- 88
2019-08-08 07:00:00 18.9 3 Sur 9 Sudeste 0 -- -- 87
2019-08-08 06:00:00 19.3 5 Sudeste 8 Sur 0 -- -- 82
2019-08-08 05:00:00 19.8 3 Sudeste 9 Noroeste 0 -- -- 78
2019-08-08 04:00:00 20.3 8 Norte 18 Noroeste 0 -- -- 76
2019-08-08 03:00:00 21.5 10 Noroeste 16 Oeste 0 -- -- 71
2019-08-08 02:00:00 22.6 11 Oeste 17 Oeste 0 -- -- 68
2019-08-08 01:00:00 23.7 5 Oeste 14 Noroeste 0 -- -- 65
2019-08-08 00:00:00 25.2 13 Oeste 24 Oeste 0 -- -- 60
2019-08-07 23:00:00 25.9 6 Sudoeste 12 Sudoeste 0 -- -- 56
2019-08-07 22:00:00 26.8 6 Sur 11 Sudoeste 0 -- -- 52
2019-08-07 21:00:00 28.3 8 Sudoeste 13 Oeste 0 -- -- 46
2019-08-07 20:00:00 28.3 8 Sudoeste 14 Oeste 0 -- -- 46
2019-08-07 19:00:00 28.1 3 Sudeste 15 Sudoeste 0 -- -- 48
2019-08-07 18:00:00 27.5 10 Oeste 14 Oeste 0 -- -- 51
2019-08-07 17:00:00 26.4 3 Nordeste 16 Noroeste 0 -- -- 54
2019-08-07 16:00:00 26.3 3 Noroeste 17 Noroeste 0 -- -- 51
2019-08-07 15:00:00 26.3 7 Noroeste 14 Oeste 0 -- -- 55
2019-08-07 14:00:00 25.8 5 Nordeste 15 Oeste 0 -- -- 56
2019-08-07 13:00:00 25.1 5 Noroeste 22 Nordeste 0 -- -- 60
2019-08-07 12:00:00 23.4 3 Nordeste 14 Oeste 0 -- -- 68
2019-08-07 11:00:00 22.3 7 Noroeste 14 Noroeste 0 -- -- 72
2019-08-07 10:00:00 20.9 5 Oeste 15 Noroeste 0 -- -- 79
2019-08-07 09:00:00 19.7 5 Norte 11 Norte 0 -- -- 83
2019-08-07 08:00:00 19 6 Norte 15 Noroeste 0 -- -- 86
2019-08-07 07:00:00 19.2 11 Noroeste 15 Oeste 0 -- -- 84
2019-08-07 06:00:00 19.5 6 Noroeste 14 Noroeste 0 -- -- 82
2019-08-07 05:00:00 19.9 9 Noroeste 13 Noroeste 0 -- -- 80
2019-08-07 04:00:00 20.2 8 Noroeste 16 Noroeste 0 -- -- 78
2019-08-07 03:00:00 21.1 8 Noroeste 15 Noroeste 0 -- -- 76
2019-08-07 02:00:00 22 8 Noroeste 18 Noroeste 0 -- -- 72
2019-08-07 01:00:00 23.1 10 Noroeste 22 Noroeste 0 -- -- 67
2019-08-07 00:00:00 24.3 14 Norte 27 Noroeste 0 -- -- 61
2019-08-06 23:00:00 25.5 22 Noroeste 32 Noroeste 0 -- -- 57
2019-08-06 22:00:00 27.4 19 Noroeste 29 Noroeste 0 -- -- 50
2019-08-06 21:00:00 29.4 21 Noroeste 31 Oeste 0 -- -- 44
2019-08-06 20:00:00 31.9 21 Noroeste 32 Noroeste 0 -- -- 38
2019-08-06 19:00:00 33.2 21 Oeste 33 Oeste 0 -- -- 35
2019-08-06 18:00:00 33.9 14 Noroeste 25 Oeste 0 -- -- 33
2019-08-06 17:00:00 33.5 17 Oeste 26 Oeste 0 -- -- 34
2019-08-06 16:00:00 32.1 15 Sudoeste 24 Sudoeste 0 -- -- 38
2019-08-06 15:00:00 31 12 Sudoeste 18 Sur 0 -- -- 41
2019-08-06 14:00:00 29.1 8 Oeste 21 Oeste 0 -- -- 47
2019-08-06 13:00:00 26.7 12 Oeste 19 Oeste 0 -- -- 54
2019-08-06 12:00:00 24.7 6 Oeste 13 Oeste 0 -- -- 62
2019-08-06 11:00:00 22.7 6 Oeste 11 Oeste 0 -- -- 70
2019-08-06 10:00:00 20.8 3 Sudoeste 10 Sudoeste 0 -- -- 77
2019-08-06 09:00:00 18.6 4 Sur 17 Sudeste 0 -- -- 81
2019-08-06 08:00:00 16.2 9 Sudeste 12 Sudeste 0 -- -- 88
2019-08-06 07:00:00 16.9 6 Nordeste 10 Noroeste 0 -- -- 90
2019-08-06 06:00:00 17.7 6 Norte 8 Noroeste 0 -- -- 87
2019-08-06 05:00:00 18.5 4 Noroeste 8 Norte 0 -- -- 82
2019-08-06 04:00:00 18.9 6 Norte 10 Norte 0 -- -- 76
2019-08-06 03:00:00 20.4 2 Norte 13 Noroeste 0 -- -- 67
2019-08-06 02:00:00 21.9 6 Norte 15 Norte 0 -- -- 58
2019-08-06 01:00:00 23.3 10 Norte 26 Noroeste 0 -- -- 50
2019-08-06 00:00:00 25.4 17 Norte 29 Noroeste 0 -- -- 42
2019-08-05 23:00:00 27.5 14 Norte 29 Noroeste 0 -- -- 40
2019-08-05 22:00:00 30 17 Noroeste 25 Noroeste 0 -- -- 34
2019-08-05 21:00:00 32.9 14 Noroeste 26 Oeste 0 -- -- 24
2019-08-05 20:00:00 34.2 15 Noroeste 22 Oeste 0 -- -- 21
2019-08-05 19:00:00 34.9 13 Oeste 25 Noroeste 0 -- -- 22
2019-08-05 18:00:00 35.1 9 Noroeste 24 Noroeste 0 -- -- 21
2019-08-05 17:00:00 34.1 10 Oeste 18 Oeste 0 -- -- 23
2019-08-05 16:00:00 32.4 10 Oeste 19 Sur 0 -- -- 30
2019-08-05 15:00:00 30.6 8 Oeste 13 Oeste 0 -- -- 34
2019-08-05 14:00:00 28 6 Oeste 14 Oeste 0 -- -- 40
2019-08-05 13:00:00 25.1 6 Oeste 11 Sudoeste 0 -- -- 49
2019-08-05 12:00:00 23 5 Oeste 12 Sudoeste 0 -- -- 56
2019-08-05 11:00:00 19.8 6 Oeste 11 Oeste 0 -- -- 67
2019-08-05 10:00:00 18.3 3 Noroeste 8 Norte 0 -- -- 74
2019-08-05 09:00:00 16.3 5 Nordeste 7 Norte 0 -- -- 81
2019-08-05 08:00:00 14.1 3 Nordeste 8 Norte 0 -- -- 88
2019-08-05 07:00:00 14.7 4 Norte 9 Norte 0 -- -- 85
2019-08-05 06:00:00 14.8 7 Norte 9 Norte 0 -- -- 84
2019-08-05 05:00:00 15.9 7 Norte 10 Norte 0 -- -- 80
2019-08-05 04:00:00 16.6 6 Norte 9 Norte 0 -- -- 78
2019-08-05 03:00:00 18.2 6 Norte 8 Norte 0 -- -- 73
2019-08-05 02:00:00 19.9 6 Norte 13 Noroeste 0 -- -- 66
2019-08-05 01:00:00 21.7 10 Noroeste 30 Norte 0 -- -- 60
2019-08-05 00:00:00 23.5 18 Noroeste 28 Noroeste 0 -- -- 53
2019-08-04 23:00:00 25.9 17 Noroeste 30 Noroeste 0 -- -- 46
2019-08-04 22:00:00 27.9 18 Noroeste 30 Noroeste 0 -- -- 42
2019-08-04 21:00:00 30.5 20 Noroeste 32 Noroeste 0 -- -- 36
2019-08-04 20:00:00 32.5 20 Noroeste 30 Noroeste 0 -- -- 33
2019-08-04 19:00:00 33.8 17 Noroeste 29 Oeste 0 -- -- 30
2019-08-04 18:00:00 34.5 14 Oeste 33 Oeste 0 -- -- 28
2019-08-04 17:00:00 34.1 14 Noroeste 29 Oeste 0 -- -- 28
2019-08-04 16:00:00 33.6 13 Noroeste 24 Oeste 0 -- -- 28
2019-08-04 15:00:00 32.8 14 Oeste 21 Oeste 0 -- -- 30
2019-08-04 14:00:00 30.2 5 Oeste 13 Noroeste 0 -- -- 39
2019-08-04 13:00:00 27.1 7 Oeste 13 Sudoeste 0 -- -- 49
2019-08-04 12:00:00 24.4 6 Oeste 15 Oeste 0 -- -- 59
2019-08-04 11:00:00 21.9 7 Oeste 14 Oeste 0 -- -- 69
2019-08-04 10:00:00 20.2 3 Noroeste 11 Norte 0 -- -- 77
2019-08-04 09:00:00 18.3 5 Norte 9 Norte 0 -- -- 84
2019-08-04 08:00:00 16.6 7 Norte 9 Norte 0 -- -- 92
2019-08-04 07:00:00 16.8 4 Norte 5 Norte 0 -- -- 91
2019-08-04 06:00:00 17.6 3 Noroeste 8 Noroeste 0 -- -- 88
2019-08-04 05:00:00 18.3 6 Noroeste 12 Noroeste 0 -- -- 84
2019-08-04 04:00:00 19.1 7 Norte 12 Norte 0 -- -- 81
2019-08-04 03:00:00 20.1 7 Norte 15 Norte 0 -- -- 75
2019-08-04 02:00:00 22 9 Noroeste 14 Noroeste 0 -- -- 66
2019-08-04 01:00:00 23.4 11 Noroeste 22 Noroeste 0 -- -- 57
2019-08-04 00:00:00 25 12 Noroeste 28 Noroeste 0 -- -- 50
2019-08-03 23:00:00 26.8 15 Norte 36 Norte 0 -- -- 49
2019-08-03 22:00:00 29.2 25 Noroeste 36 Noroeste 0 -- -- 43
2019-08-03 21:00:00 33 16 Noroeste 26 Oeste 0 -- -- 30
2019-08-03 20:00:00 34.4 12 Oeste 20 Oeste 0 -- -- 25
2019-08-03 19:00:00 34.8 7 Noroeste 18 Oeste 0 -- -- 23
2019-08-03 18:00:00 34.1 10 Oeste 20 Oeste 0 -- -- 26
2019-08-03 17:00:00 33.1 13 Sudoeste 23 Sudoeste 0 -- -- 31
2019-08-03 16:00:00 31.3 13 Sudoeste 22 Oeste 0 -- -- 37
2019-08-03 15:00:00 29.9 15 Sudoeste 22 Sudoeste 0 -- -- 39
2019-08-03 14:00:00 27.4 12 Sudoeste 20 Oeste 0 -- -- 46
2019-08-03 13:00:00 25 10 Sudoeste 17 Sudoeste 0 -- -- 52
2019-08-03 12:00:00 22.8 8 Sudoeste 13 Sudoeste 0 -- -- 58
2019-08-03 11:00:00 20.6 8 Oeste 13 Oeste 0 -- -- 67
2019-08-03 10:00:00 18.5 6 Sudoeste 11 Sur 0 -- -- 75
2019-08-03 09:00:00 16.6 4 Noroeste 8 Noroeste 0 -- -- 81
2019-08-03 08:00:00 15 5 Noroeste 8 Noroeste 0 -- -- 86
2019-08-03 07:00:00 15.4 5 Noroeste 7 Noroeste 0 -- -- 83
2019-08-03 06:00:00 16 4 Noroeste 8 Noroeste 0 -- -- 80
2019-08-03 05:00:00 16.9 5 Noroeste 9 Noroeste 0 -- -- 76
2019-08-03 04:00:00 18.1 3 Noroeste 10 Norte 0 -- -- 72
2019-08-03 03:00:00 19.4 8 Noroeste 12 Noroeste 0 -- -- 66
2019-08-03 02:00:00 21.2 5 Norte 16 Norte 0 -- -- 60
2019-08-03 01:00:00 23 9 Noroeste 22 Norte 0 -- -- 56
2019-08-03 00:00:00 25.1 11 Noroeste 31 Norte 0 -- -- 48
2019-08-02 23:00:00 27.3 18 Norte 32 Norte 0 -- -- 45
2019-08-02 22:00:00 29.7 18 Noroeste 30 Noroeste 0 -- -- 42
2019-08-02 21:00:00 33.2 12 Noroeste 24 Noroeste 0 -- -- 29
2019-08-02 20:00:00 34.1 5 Sudoeste 15 Oeste 0 -- -- 23
2019-08-02 19:00:00 34.1 9 Sudoeste 15 Sudoeste 0 -- -- 24
2019-08-02 18:00:00 33.9 12 Sudoeste 17 Oeste 0 -- -- 25
2019-08-02 17:00:00 33.2 10 Oeste 17 Sudoeste 0 -- -- 27
2019-08-02 16:00:00 32 7 Oeste 16 Sudoeste 0 -- -- 31
2019-08-02 15:00:00 29.3 8 Oeste 15 Oeste 0 -- -- 39
2019-08-02 14:00:00 26.6 9 Oeste 15 Oeste 0 -- -- 46
2019-08-02 13:00:00 24.1 7 Oeste 14 Oeste 0 -- -- 53
2019-08-02 12:00:00 22.3 6 Oeste 12 Sudoeste 0 -- -- 60
2019-08-02 11:00:00 20.1 4 Norte 10 Noroeste 0 -- -- 66
2019-08-02 10:00:00 17.8 4 Noroeste 12 Noroeste 0 -- -- 77
2019-08-02 09:00:00 16.6 0 Calma 5 Este 0 -- -- 80
2019-08-02 08:00:00 14.4 3 Este 6 Este 0 -- -- 89
2019-08-02 07:00:00 14.7 3 Norte 12 Norte 0 -- -- 88
2019-08-02 06:00:00 15.3 9 Norte 14 Norte 0 -- -- 86
2019-08-02 05:00:00 15.1 6 Nordeste 9 Norte 0 -- -- 84
2019-08-02 04:00:00 16 6 Norte 10 Norte 0 -- -- 73
2019-08-02 03:00:00 17.7 6 Noroeste 13 Noroeste 0 -- -- 62
2019-08-02 02:00:00 19.7 9 Noroeste 19 Norte 0 -- -- 47
2019-08-02 01:00:00 21.5 7 Noroeste 26 Norte 0 -- -- 40
2019-08-02 00:00:00 23.7 17 Norte 33 Noroeste 0 -- -- 41
2019-08-01 23:00:00 25.7 17 Noroeste 35 Noroeste 0 -- -- 40
2019-08-01 22:00:00 28.1 21 Noroeste 34 Noroeste 0 -- -- 32
2019-08-01 21:00:00 31 23 Noroeste 32 Noroeste 0 -- -- 28
2019-08-01 20:00:00 32.9 20 Noroeste 32 Noroeste 0 -- -- 25
2019-08-01 19:00:00 33.9 18 Noroeste 31 Noroeste 0 -- -- 22
2019-08-01 18:00:00 34.3 13 Noroeste 32 Oeste 0 -- -- 20
2019-08-01 17:00:00 34.4 14 Noroeste 26 Oeste 0 -- -- 22
2019-08-01 16:00:00 33.2 9 Sudoeste 18 Oeste 0 -- -- 26
2019-08-01 15:00:00 31.5 11 Sudoeste 20 Sudoeste 0 -- -- 31
2019-08-01 14:00:00 29.2 10 Sur 18 Sudoeste 0 -- -- 39
2019-08-01 13:00:00 26.1 9 Sudoeste 15 Sudoeste 0 -- -- 46
2019-08-01 12:00:00 23.5 8 Sudoeste 13 Sudoeste 0 -- -- 53
2019-08-01 11:00:00 21.2 5 Sudoeste 11 Sudoeste 0 -- -- 60
2019-08-01 10:00:00 19.2 2 Sudoeste 9 Noroeste 0 -- -- 68
2019-08-01 09:00:00 17.3 4 Noroeste 7 Noroeste 0 -- -- 74
2019-08-01 08:00:00 15.3 0 Calma 5 Sudeste 0 -- -- 74
2019-08-01 07:00:00 15.4 0 Calma 5 Noroeste 0 -- -- 75
2019-08-01 06:00:00 16.1 5 Noroeste 8 Noroeste 0 -- -- 71
2019-08-01 05:00:00 17.3 6 Noroeste 13 Oeste 0 -- -- 66
2019-08-01 04:00:00 18.7 6 Noroeste 10 Noroeste 0 -- -- 63
2019-08-01 03:00:00 20.5 5 Noroeste 12 Norte 0 -- -- 58
2019-08-01 02:00:00 21.8 9 Norte 17 Norte 0 -- -- 51
2019-08-01 01:00:00 23.8 7 Norte 21 Norte 0 -- -- 46
2019-08-01 00:00:00 25.7 12 Norte 19 Norte 0 -- -- 40
2019-07-31 23:00:00 26.3 4 Nordeste 14 Norte 0 -- -- 38
2019-07-31 22:00:00 27.6 10 Norte 31 Norte 0 -- -- 36
2019-07-31 21:00:00 28.4 23 Noroeste 42 Noroeste 0 -- -- 34
2019-07-31 20:00:00 33.8 13 Noroeste 25 Noroeste 0 -- -- 18
2019-07-31 19:00:00 35.3 10 Oeste 29 Oeste 0 -- -- 15
2019-07-31 18:00:00 35.5 13 Oeste 26 Oeste 0 -- -- 15
2019-07-31 17:00:00 35.4 11 Oeste 23 Oeste 0 -- -- 14
2019-07-31 16:00:00 34.5 13 Oeste 22 Oeste 0 -- -- 16
2019-07-31 15:00:00 33.2 8 Sudoeste 16 Sudoeste 0 -- -- 19
2019-07-31 14:00:00 32.1 8 Noroeste 18 Oeste 0 -- -- 20
2019-07-31 13:00:00 29.8 11 Oeste 17 Oeste 0 -- -- 28
2019-07-31 12:00:00 26.7 9 Noroeste 19 Nordeste 0 -- -- 34
2019-07-31 11:00:00 23.2 8 Nordeste 14 Norte 0 -- -- 43
2019-07-31 10:00:00 19.1 6 Norte 11 Noroeste 0 -- -- 60
2019-07-31 09:00:00 16.5 3 Norte 5 Noroeste 0 -- -- 70
2019-07-31 08:00:00 14 5 Este 8 Sudeste 0 -- -- 75
2019-07-31 07:00:00 14.6 3 Nordeste 6 Nordeste 0 -- -- 76
2019-07-31 06:00:00 14.8 5 Nordeste 9 Nordeste 0 -- -- 73
2019-07-31 05:00:00 15.1 6 Nordeste 8 Nordeste 0 -- -- 72
2019-07-31 04:00:00 16.2 6 Norte 12 Norte 0 -- -- 67
2019-07-31 03:00:00 17.7 9 Norte 20 Noroeste 0 -- -- 62
2019-07-31 02:00:00 19.1 13 Norte 22 Norte 0 -- -- 56
2019-07-31 01:00:00 20.5 10 Norte 19 Norte 0 -- -- 52
2019-07-31 00:00:00 21.8 10 Norte 26 Norte 0 -- -- 50
2019-07-30 23:00:00 23.9 16 Norte 33 Norte 0 -- -- 45
2019-07-30 22:00:00 27.1 20 Norte 30 Norte 0 -- -- 33
2019-07-30 21:00:00 30.9 12 Norte 22 Nordeste 0 -- -- 18
2019-07-30 20:00:00 31.7 11 Norte 27 Norte 0 -- -- 16
2019-07-30 19:00:00 31.7 17 Nordeste 33 Norte 0 -- -- 17
2019-07-30 18:00:00 31.7 12 Norte 30 Norte 0 -- -- 16
2019-07-30 17:00:00 30.9 14 Nordeste 29 Norte 0 -- -- 17
2019-07-30 16:00:00 30.1 17 Nordeste 31 Nordeste 0 -- -- 18
2019-07-30 15:00:00 29 13 Nordeste 33 Norte 0 -- -- 20
2019-07-30 14:00:00 27.5 18 Norte 30 Norte 0 -- -- 24
2019-07-30 13:00:00 25.1 16 Norte 30 Norte 0 -- -- 30
2019-07-30 12:00:00 23.2 18 Norte 29 Nordeste 0 -- -- 37
2019-07-30 11:00:00 21.1 16 Norte 28 Nordeste 0 -- -- 44
2019-07-30 10:00:00 18.9 13 Nordeste 21 Nordeste 0 -- -- 54
2019-07-30 09:00:00 15.3 5 Noroeste 8 Norte 0 -- -- 74
2019-07-30 08:00:00 13.3 2 Sudeste 5 Nordeste 0 -- -- 82
2019-07-30 07:00:00 13.4 3 Este 8 Norte 0 -- -- 81
2019-07-30 06:00:00 13.7 4 Norte 12 Norte 0 -- -- 80
2019-07-30 05:00:00 14.9 8 Norte 17 Norte 0 -- -- 75
2019-07-30 04:00:00 15.6 8 Norte 22 Norte 0 -- -- 72
2019-07-30 03:00:00 16.5 13 Norte 32 Norte 0 -- -- 69
2019-07-30 02:00:00 17.4 20 Norte 34 Norte 0 -- -- 65
2019-07-30 01:00:00 18.6 18 Norte 32 Norte 0 -- -- 57
2019-07-30 00:00:00 20.2 19 Norte 35 Norte 0 -- -- 49
2019-07-29 23:00:00 21.9 20 Norte 36 Norte 0 -- -- 45
2019-07-29 22:00:00 23.8 22 Norte 42 Noroeste 0 -- -- 41
2019-07-29 21:00:00 26.5 23 Norte 40 Norte 0 -- -- 34
2019-07-29 20:00:00 28.4 23 Norte 37 Norte 0 -- -- 29
2019-07-29 19:00:00 29.4 22 Norte 35 Norte 0 -- -- 29
2019-07-29 18:00:00 29.9 23 Noroeste 34 Norte 0 -- -- 28
2019-07-29 17:00:00 30 19 Norte 35 Noroeste 0 -- -- 31
2019-07-29 16:00:00 29.1 18 Noroeste 33 Oeste 0 -- -- 34
2019-07-29 15:00:00 28 13 Oeste 24 Noroeste 0 -- -- 41
2019-07-29 14:00:00 26.1 13 Noroeste 26 Oeste 0 -- -- 47
2019-07-29 13:00:00 24.4 16 Noroeste 33 Noroeste 0 -- -- 57
2019-07-29 12:00:00 23.4 22 Noroeste 33 Oeste 0 -- -- 61
2019-07-29 11:00:00 22 18 Norte 33 Noroeste 0 -- -- 68
2019-07-29 10:00:00 19.6 10 Norte 18 Noroeste 0 -- -- 75
2019-07-29 09:00:00 17.6 8 Noroeste 12 Noroeste 0 -- -- 80
2019-07-29 08:00:00 15.8 5 Noroeste 11 Noroeste 0 -- -- 82
2019-07-29 07:00:00 15.6 9 Noroeste 15 Noroeste 0 -- -- 80
2019-07-29 06:00:00 15.5 7 Noroeste 15 Noroeste 0 -- -- 74
2019-07-29 05:00:00 16 7 Noroeste 9 Noroeste 0 -- -- 73
2019-07-29 04:00:00 17.4 4 Noroeste 8 Norte 0 -- -- 66
2019-07-29 03:00:00 18.3 6 Nordeste 10 Norte 0 -- -- 61
2019-07-29 02:00:00 20.2 5 Nordeste 21 Noroeste 0 -- -- 61
2019-07-29 01:00:00 22.1 14 Noroeste 26 Noroeste 0 -- -- 58
2019-07-29 00:00:00 23.8 18 Noroeste 31 Noroeste 0 -- -- 52
2019-07-28 23:00:00 25.7 19 Noroeste 33 Noroeste 0 -- -- 48
2019-07-28 22:00:00 27.6 22 Noroeste 36 Noroeste 0 -- -- 45
2019-07-28 21:00:00 30.7 12 Oeste 18 Sudoeste 0 -- -- 37
2019-07-28 20:00:00 31.6 8 Sudoeste 15 Sudoeste 0 -- -- 36
2019-07-28 19:00:00 31.4 13 Sudoeste 18 Sudoeste 0 -- -- 35
2019-07-28 18:00:00 31.4 9 Sudoeste 19 Oeste 0 -- -- 35
2019-07-28 17:00:00 30.6 10 Sudoeste 23 Norte 0 -- -- 37
2019-07-28 16:00:00 29.6 12 Sudoeste 21 Oeste 0 -- -- 41
2019-07-28 15:00:00 28.2 10 Oeste 16 Noroeste 0 -- -- 44
2019-07-28 14:00:00 26.4 8 Sudoeste 15 Sudoeste 0 -- -- 48
2019-07-28 13:00:00 24.6 6 Oeste 12 Oeste 0 -- -- 57
2019-07-28 12:00:00 22.2 5 Oeste 13 Oeste 0 -- -- 69
2019-07-28 11:00:00 20.5 5 Noroeste 11 Oeste 0 -- -- 75
2019-07-28 10:00:00 19.1 6 Noroeste 10 Noroeste 0 -- -- 82
2019-07-28 09:00:00 17.5 4 Sudeste 8 Sudeste 0 -- -- 86
2019-07-28 08:00:00 15.8 0 Calma 6 Norte 0 -- -- 92
2019-07-28 07:00:00 15.9 0 Calma 10 Norte 0 -- -- 92
2019-07-28 06:00:00 16 6 Norte 14 Norte 0 -- -- 91
2019-07-28 05:00:00 16.4 0 Calma 4 Norte 0 -- -- 87
2019-07-28 04:00:00 17 4 Norte 16 Norte 0 -- -- 84
2019-07-28 03:00:00 17.7 8 Norte 14 Noroeste 0 -- -- 80
2019-07-28 02:00:00 18.8 10 Noroeste 16 Noroeste 0 -- -- 76
2019-07-28 01:00:00 19.7 10 Noroeste 17 Noroeste 0 -- -- 72
2019-07-28 00:00:00 20.6 12 Noroeste 26 Noroeste 0 -- -- 73
2019-07-27 23:00:00 21.7 21 Oeste 36 Oeste 0 -- -- 70
2019-07-26 12:00:00 -- -- -- -- -- -- -- -- --
2019-07-26 11:00:00 -- -- -- -- -- -- -- -- --
2019-07-26 10:00:00 18.9 13 Norte 21 Norte 0 -- -- 71
2019-07-26 09:00:00 17.1 6 Noroeste 12 Noroeste 0 -- -- 80
2019-07-26 08:00:00 15.6 10 Noroeste 13 Noroeste 0 -- -- 87
2019-07-26 07:00:00 15.4 7 Noroeste 13 Norte 0 -- -- 86
2019-07-26 06:00:00 16.1 6 Norte 14 Noroeste 0 -- -- 82
2019-07-26 05:00:00 17.3 10 Noroeste 23 Noroeste 0 -- -- 76
2019-07-26 04:00:00 18.8 10 Noroeste 22 Noroeste 0 -- -- 71
2019-07-26 03:00:00 19.7 14 Noroeste 21 Noroeste 0 -- -- 71
2019-07-26 02:00:00 20.3 12 Noroeste 30 Noroeste 0 -- -- 71
2019-07-26 01:00:00 21.4 19 Noroeste 27 Noroeste 0 -- -- 72
2019-07-26 00:00:00 22.4 15 Noroeste 21 Noroeste 0 -- -- 72
2019-07-25 23:00:00 23.1 16 Noroeste 42 Noroeste 0 -- -- 70
2019-07-25 22:00:00 24.9 31 Noroeste 50 Oeste 0 -- -- 67
2019-07-25 21:00:00 28.4 33 Oeste 45 Oeste 0 -- -- 56
2019-07-25 20:00:00 32.8 14 Oeste 26 Oeste 0 -- -- 36
2019-07-25 19:00:00 33.2 14 Oeste 28 Oeste 0 -- -- 33
2019-07-25 18:00:00 33.7 14 Oeste 27 Sudoeste 0 -- -- 29
2019-07-25 17:00:00 33.2 15 Oeste 29 Oeste 0 -- -- 30
2019-07-25 16:00:00 32.7 16 Oeste 28 Oeste 0 -- -- 35
2019-07-25 15:00:00 31.3 14 Oeste 24 Sudoeste 0 -- -- 40
2019-07-25 14:00:00 29.5 9 Oeste 17 Noroeste 0 -- -- 49
2019-07-25 13:00:00 27.7 9 Oeste 15 Noroeste 0 -- -- 55
2019-07-25 12:00:00 25.3 9 Oeste 14 Oeste 0 -- -- 65
2019-07-25 11:00:00 23.5 9 Oeste 14 Noroeste 0 -- -- 70
2019-07-25 10:00:00 21.4 9 Noroeste 15 Noroeste 0 -- -- 80
2019-07-25 09:00:00 20.1 9 Noroeste 14 Noroeste 0 -- -- 82
2019-07-25 08:00:00 18.6 4 Nordeste 6 Este 0 -- -- 86
2019-07-25 07:00:00 18.4 2 Norte 8 Norte 0 -- -- 87
2019-07-25 06:00:00 19.3 5 Norte 8 Norte 0 -- -- 83
2019-07-25 05:00:00 20 4 Norte 10 Noroeste 0 -- -- 78
2019-07-25 04:00:00 21.4 8 Noroeste 10 Noroeste 0 -- -- 72
2019-07-25 03:00:00 22.6 6 Norte 13 Noroeste 0 -- -- 67
2019-07-25 02:00:00 24.2 9 Noroeste 19 Noroeste 0 -- -- 61
2019-07-25 01:00:00 26.2 14 Noroeste 24 Noroeste 0 -- -- 53
2019-07-25 00:00:00 28.3 10 Oeste 19 Oeste 0 -- -- 41
2019-07-24 23:00:00 29.8 8 Noroeste 30 Noroeste 0 -- -- 35
2019-07-24 22:00:00 31.9 17 Noroeste 38 Noroeste 0 -- -- 28
2019-07-24 21:00:00 34.9 14 Oeste 26 Oeste 0 -- -- 29
2019-07-24 20:00:00 35.8 16 Sudoeste 25 Sudoeste 0 -- -- 26
2019-07-24 19:00:00 36.5 19 Sudoeste 26 Sudoeste 0 -- -- 26
2019-07-24 18:00:00 36.7 16 Sudoeste 25 Sudoeste 0 -- -- 22
2019-07-24 17:00:00 36.3 15 Sudoeste 22 Sudoeste 0 -- -- 27
2019-07-24 16:00:00 35.6 15 Sudoeste 23 Oeste 0 -- -- 28
2019-07-24 15:00:00 35.3 13 Sudoeste 23 Sudoeste 0 -- -- 26
2019-07-24 14:00:00 33.6 11 Sudoeste 18 Sudoeste 0 -- -- 24
2019-07-24 13:00:00 30.9 8 Sudoeste 14 Sudoeste 0 -- -- 33
2019-07-24 12:00:00 27.6 6 Sudoeste 13 Sudoeste 0 -- -- 42
2019-07-24 11:00:00 25.9 9 Oeste 13 Oeste 0 -- -- 47
2019-07-24 10:00:00 23.7 5 Sur 9 Sudoeste 0 -- -- 52
2019-07-24 09:00:00 21.6 2 Sur 6 Sudeste 0 -- -- 57
2019-07-24 08:00:00 19.1 4 Nordeste 5 Norte 0 -- -- 65
2019-07-24 07:00:00 19.2 2 Norte 8 Norte 0 -- -- 63
2019-07-24 06:00:00 20 5 Norte 12 Norte 0 -- -- 62
2019-07-24 05:00:00 20.6 8 Norte 13 Norte 0 -- -- 59
2019-07-24 04:00:00 22.2 2 Sudeste 6 Sur 0 -- -- 52
2019-07-24 03:00:00 22.9 4 Sudeste 12 Nordeste 0 -- -- 48
2019-07-24 02:00:00 24 10 Nordeste 17 Norte 0 -- -- 43
2019-07-24 01:00:00 25.5 14 Norte 26 Norte 0 -- -- 40
2019-07-24 00:00:00 26.9 14 Norte 24 Norte 0 -- -- 43
2019-07-23 23:00:00 28.8 14 Norte 28 Noroeste 0 -- -- 41
2019-07-23 22:00:00 31 18 Noroeste 31 Noroeste 0 -- -- 38
2019-07-23 21:00:00 33.3 24 Noroeste 37 Noroeste 0 -- -- 32
2019-07-23 20:00:00 35.8 17 Oeste 25 Oeste 0 -- -- 28
2019-07-23 19:00:00 36.5 11 Oeste 23 Oeste 0 -- -- 27
2019-07-23 18:00:00 35.9 10 Sudoeste 23 Oeste 0 -- -- 30
2019-07-23 17:00:00 35.6 13 Sudoeste 23 Sudoeste 0 -- -- 31
2019-07-23 16:00:00 34.4 12 Sudoeste 21 Sur 0 -- -- 33
2019-07-23 15:00:00 32.9 10 Sudoeste 20 Sudoeste 0 -- -- 39
2019-07-23 14:00:00 30.7 13 Sudoeste 21 Sudoeste 0 -- -- 45
2019-07-23 13:00:00 28.6 16 Sudoeste 25 Sudoeste 0 -- -- 53
2019-07-23 12:00:00 27.5 15 Sudoeste 21 Sudoeste 0 -- -- 54
2019-07-23 11:00:00 26 5 Sur 12 Oeste 0 -- -- 53
2019-07-23 10:00:00 23.5 6 Oeste 9 Oeste 0 -- -- 59
2019-07-23 09:00:00 22 4 Noroeste 12 Noroeste 0 -- -- 63
2019-07-23 08:00:00 21.5 8 Oeste 17 Sudoeste 0 -- -- 64
2019-07-23 07:00:00 21.5 12 Sur 17 Sur 0 -- -- 66
2019-07-23 06:00:00 21.9 5 Sudeste 10 Sur 0 -- -- 61
2019-07-23 05:00:00 22.9 6 Sudoeste 15 Sudoeste 0 -- -- 60
2019-07-23 04:00:00 23.7 9 Sudoeste 16 Sudoeste 0 -- -- 55
2019-07-23 03:00:00 24.7 8 Sudoeste 17 Sudoeste 0 -- -- 51
2019-07-23 02:00:00 26.1 6 Sudoeste 18 Norte 0 -- -- 51
2019-07-23 01:00:00 27.6 12 Noroeste 24 Noroeste 0 -- -- 49
2019-07-23 00:00:00 29 10 Oeste 18 Oeste 0 -- -- 46
2019-07-22 23:00:00 31.1 9 Oeste 22 Noroeste 0 -- -- 37
2019-07-22 22:00:00 33 18 Noroeste 37 Noroeste 0 -- -- 34
2019-07-22 21:00:00 35.3 19 Noroeste 30 Noroeste 0 -- -- 27
2019-07-22 20:00:00 37.4 11 Sudoeste 22 Sudoeste 0 -- -- 23
2019-07-22 19:00:00 37.6 16 Sudoeste 22 Sudoeste 0 -- -- 22
2019-07-22 18:00:00 38 12 Sudoeste 16 Sudoeste 0 -- -- 19
2019-07-22 17:00:00 37.7 11 Oeste 17 Oeste 0 -- -- 16
2019-07-22 16:00:00 36.9 12 Sudoeste 17 Sur 0 -- -- 11
2019-07-22 15:00:00 34.9 8 Noroeste 22 Sudoeste 0 -- -- 18
2019-07-22 14:00:00 33.3 14 Oeste 19 Sudoeste 0 -- -- 24
2019-07-22 13:00:00 30.9 13 Sudoeste 18 Sudoeste 0 -- -- 36
2019-07-22 12:00:00 29.1 7 Sudoeste 14 Sur 0 -- -- 43
2019-07-22 11:00:00 26.7 8 Sur 13 Sur 0 -- -- 50
2019-07-22 10:00:00 23.8 2 Sudoeste 7 Noroeste 0 -- -- 56
2019-07-22 09:00:00 21 3 Norte 9 Noroeste 0 -- -- 65
2019-07-22 08:00:00 20.3 6 Oeste 14 Oeste 0 -- -- 68
2019-07-22 07:00:00 20.5 6 Sur 10 Sur 0 -- -- 70
2019-07-22 06:00:00 21.1 7 Sur 9 Sur 0 -- -- 63
2019-07-22 05:00:00 22 6 Sudeste 7 Sur 0 -- -- 60
2019-07-22 04:00:00 22.7 4 Sudeste 7 Sudeste 0 -- -- 57
2019-07-22 03:00:00 23.6 5 Nordeste 13 Norte 0 -- -- 56
2019-07-22 02:00:00 24.9 8 Norte 19 Norte 0 -- -- 51
2019-07-22 01:00:00 26.3 10 Norte 25 Norte 0 -- -- 46
2019-07-22 00:00:00 28 16 Norte 26 Norte 0 -- -- 41
2019-07-21 23:00:00 30.2 14 Norte 27 Noroeste 0 -- -- 42
2019-07-21 22:00:00 32.9 16 Norte 24 Noroeste 0 -- -- 31
2019-07-21 21:00:00 36 10 Noroeste 19 Noroeste 0 -- -- 20
2019-07-21 20:00:00 37.4 13 Noroeste 23 Noroeste 0 -- -- 18
2019-07-21 19:00:00 37.9 12 Oeste 21 Oeste 0 -- -- 18
2019-07-21 18:00:00 37.3 10 Oeste 17 Oeste 0 -- -- 19
2019-07-21 17:00:00 37 9 Sudoeste 15 Oeste 0 -- -- 18
2019-07-21 16:00:00 34.9 8 Oeste 14 Oeste 0 -- -- 26
2019-07-21 15:00:00 31.8 9 Sudoeste 13 Sudoeste 0 -- -- 33
2019-07-21 14:00:00 28.9 6 Oeste 15 Oeste 0 -- -- 40
2019-07-21 13:00:00 26.4 8 Sudoeste 14 Oeste 0 -- -- 45
2019-07-21 12:00:00 23.6 5 Noroeste 12 Noroeste 0 -- -- 54
2019-07-21 11:00:00 21.1 6 Sudoeste 12 Oeste 0 -- -- 59
2019-07-21 10:00:00 19.1 3 Noroeste 8 Norte 0 -- -- 66
2019-07-21 09:00:00 17.2 6 Norte 10 Norte 0 -- -- 75
2019-07-21 08:00:00 15.1 7 Norte 9 Norte 0 -- -- 80
2019-07-21 07:00:00 15.6 5 Norte 6 Noroeste 0 -- -- 77
2019-07-21 06:00:00 16.9 5 Noroeste 10 Norte 0 -- -- 72
2019-07-21 05:00:00 17.7 8 Norte 12 Norte 0 -- -- 70
2019-07-21 04:00:00 18.9 7 Norte 12 Norte 0 -- -- 66
2019-07-21 03:00:00 20.7 10 Norte 18 Norte 0 -- -- 59
2019-07-21 02:00:00 21.9 14 Norte 26 Norte 0 -- -- 56
2019-07-21 01:00:00 23.1 4 Nordeste 12 Noroeste 0 -- -- 58
2019-07-21 00:00:00 25.3 9 Norte 28 Noroeste 0 -- -- 49